createdAt,value
2023-05-22T00:00:12.714Z,0.00
2023-05-22T00:01:13.035Z,0.00
2023-05-22T00:02:13.374Z,0.00
2023-05-22T00:03:13.696Z,0.00
2023-05-22T00:04:13.961Z,0.00
2023-05-22T00:05:14.420Z,0.00
2023-05-22T00:06:14.598Z,0.00
2023-05-22T00:07:14.867Z,0.00
2023-05-22T00:08:15.243Z,0.00
2023-05-22T00:09:15.540Z,0.00
2023-05-22T00:10:15.865Z,0.00
2023-05-22T00:11:16.237Z,0.00
2023-05-22T00:12:16.561Z,0.00
2023-05-22T00:13:16.858Z,0.00
2023-05-22T00:14:17.165Z,0.00
2023-05-22T00:15:17.454Z,0.00
2023-05-22T00:16:17.885Z,0.00
2023-05-22T00:17:18.079Z,0.00
2023-05-22T00:18:18.360Z,0.00
2023-05-22T00:19:18.705Z,0.00
2023-05-22T00:20:19.099Z,0.00
2023-05-22T00:21:19.273Z,0.00
2023-05-22T00:22:19.720Z,0.00
2023-05-22T00:23:19.931Z,0.00
2023-05-22T00:24:20.068Z,0.00
2023-05-22T00:25:20.370Z,0.00
2023-05-22T00:26:20.616Z,0.00
2023-05-22T00:27:20.925Z,1.00
2023-05-22T00:28:21.664Z,0.00
2023-05-22T00:29:21.487Z,0.00
2023-05-22T00:30:21.915Z,0.00
2023-05-22T00:31:22.056Z,0.00
2023-05-22T00:32:22.649Z,0.00
2023-05-22T00:33:22.746Z,0.00
2023-05-22T00:34:23.058Z,0.00
2023-05-22T00:35:23.456Z,0.00
2023-05-22T00:36:23.706Z,0.00
2023-05-22T00:37:23.903Z,0.00
2023-05-22T00:38:24.244Z,0.00
2023-05-22T00:39:24.509Z,0.00
2023-05-22T00:40:24.816Z,0.00
2023-05-22T00:41:25.157Z,0.00
2023-05-22T00:42:25.434Z,0.00
2023-05-22T00:43:25.797Z,0.00
2023-05-22T00:44:26.101Z,0.00
2023-05-22T00:45:26.625Z,0.00
2023-05-22T00:46:26.841Z,0.00
2023-05-22T00:47:27.227Z,0.00
2023-05-22T00:48:27.459Z,0.00
2023-05-22T00:49:27.775Z,0.00
2023-05-22T00:50:29.467Z,0.00
2023-05-22T00:51:28.439Z,0.00
2023-05-22T00:52:28.618Z,0.00
2023-05-22T00:53:28.944Z,0.00
2023-05-22T00:54:29.261Z,0.00
2023-05-22T00:55:29.640Z,0.00
2023-05-22T00:56:29.881Z,0.00
2023-05-22T00:57:30.169Z,0.00
2023-05-22T00:58:30.487Z,0.00
2023-05-22T00:59:30.788Z,0.00
2023-05-22T01:00:31.102Z,0.00
2023-05-22T01:01:31.521Z,0.00
2023-05-22T01:02:31.821Z,0.00
2023-05-22T01:03:32.045Z,0.00
2023-05-22T01:04:32.261Z,0.00
2023-05-22T01:05:32.666Z,0.00
2023-05-22T01:06:32.830Z,0.00
2023-05-22T01:07:33.159Z,0.00
2023-05-22T01:08:33.450Z,0.00
2023-05-22T01:09:33.765Z,0.00
2023-05-22T01:10:34.038Z,0.00
2023-05-22T01:11:34.408Z,0.00
2023-05-22T01:12:34.775Z,0.00
2023-05-22T01:13:35.094Z,0.00
2023-05-22T01:14:35.327Z,0.00
2023-05-22T01:15:35.660Z,0.00
2023-05-22T01:16:35.994Z,0.00
2023-05-22T01:17:36.494Z,0.00
2023-05-22T01:18:36.518Z,0.00
2023-05-22T01:19:36.868Z,0.00
2023-05-22T01:20:37.407Z,0.00
2023-05-22T01:21:37.525Z,0.00
2023-05-22T01:22:37.769Z,0.00
2023-05-22T01:23:38.123Z,0.00
2023-05-22T01:24:38.414Z,0.00
2023-05-22T01:25:39.631Z,0.00
2023-05-22T01:26:39.048Z,0.00
2023-05-22T01:27:39.396Z,0.00
2023-05-22T01:28:39.740Z,0.00
2023-05-22T01:29:40.011Z,0.00
2023-05-22T01:30:40.589Z,0.00
2023-05-22T01:31:40.617Z,0.00
2023-05-22T01:32:40.930Z,0.00
2023-05-22T01:33:41.519Z,0.00
2023-05-22T01:34:41.524Z,1.00
2023-05-22T01:35:41.961Z,0.00
2023-05-22T01:36:42.130Z,0.00
2023-05-22T01:37:42.469Z,0.00
2023-05-22T01:38:42.781Z,0.00
2023-05-22T01:39:43.246Z,0.00
2023-05-22T01:40:43.384Z,0.00
2023-05-22T01:41:43.724Z,0.00
2023-05-22T01:42:44.028Z,0.00
2023-05-22T01:43:44.344Z,0.00
2023-05-22T01:44:44.942Z,0.00
2023-05-22T01:45:45.031Z,0.00
2023-05-22T01:46:45.234Z,0.00
2023-05-22T01:47:45.554Z,0.00
2023-05-22T01:48:45.814Z,0.00
2023-05-22T01:49:46.153Z,0.00
2023-05-22T01:50:46.868Z,0.00
2023-05-22T01:51:46.724Z,0.00
2023-05-22T01:52:46.977Z,0.00
2023-05-22T01:53:47.349Z,0.00
2023-05-22T01:54:47.651Z,0.00
2023-05-22T01:55:48.092Z,0.00
2023-05-22T01:56:48.209Z,0.00
2023-05-22T01:57:48.678Z,0.00
2023-05-22T01:58:48.870Z,0.00
2023-05-22T01:59:49.045Z,0.00
2023-05-22T02:00:49.420Z,0.00
2023-05-22T02:01:49.861Z,0.00
2023-05-22T02:02:50.082Z,0.00
2023-05-22T02:03:50.369Z,0.00
2023-05-22T02:04:50.628Z,0.00
2023-05-22T02:05:50.959Z,0.00
2023-05-22T02:06:51.318Z,0.00
2023-05-22T02:07:51.609Z,0.00
2023-05-22T02:08:51.931Z,0.00
2023-05-22T02:09:52.225Z,0.00
2023-05-22T02:10:52.578Z,0.00
2023-05-22T02:11:52.955Z,0.00
2023-05-22T02:12:53.198Z,0.00
2023-05-22T02:13:53.463Z,0.00
2023-05-22T02:14:53.833Z,0.00
2023-05-22T02:15:54.156Z,0.00
2023-05-22T02:16:54.447Z,0.00
2023-05-22T02:17:54.794Z,0.00
2023-05-22T02:18:55.102Z,0.00
2023-05-22T02:19:55.367Z,0.00
2023-05-22T02:20:56.655Z,0.00
2023-05-22T02:21:56.436Z,0.00
2023-05-22T02:22:56.218Z,0.00
2023-05-22T02:23:56.568Z,0.00
2023-05-22T02:24:56.852Z,0.00
2023-05-22T02:25:57.189Z,0.00
2023-05-22T02:26:57.553Z,0.00
2023-05-22T02:27:57.821Z,0.00
2023-05-22T02:28:58.131Z,0.00
2023-05-22T02:29:58.454Z,0.00
2023-05-22T02:30:58.798Z,0.00
2023-05-22T02:31:59.194Z,0.00
2023-05-22T02:32:59.443Z,0.00
2023-05-22T02:33:59.702Z,0.00
2023-05-22T02:34:59.980Z,0.00
2023-05-22T02:36:00.439Z,0.00
2023-05-22T02:37:00.565Z,1.00
2023-05-22T02:38:01.326Z,0.00
2023-05-22T02:39:01.247Z,0.00
2023-05-22T02:40:01.782Z,1.00
2023-05-22T02:41:01.791Z,0.00
2023-05-22T02:42:02.152Z,0.00
2023-05-22T02:43:02.506Z,0.00
2023-05-22T02:44:02.738Z,0.00
2023-05-22T02:45:03.025Z,0.00
2023-05-22T02:46:03.249Z,0.00
2023-05-22T02:47:03.643Z,0.00
2023-05-22T02:48:04.029Z,0.00
2023-05-22T02:49:04.146Z,0.00
2023-05-22T02:50:04.435Z,0.00
2023-05-22T02:51:04.826Z,0.00
2023-05-22T02:52:05.177Z,0.00
2023-05-22T02:53:05.331Z,0.00
2023-05-22T02:54:05.651Z,0.00
2023-05-22T02:55:05.934Z,0.00
2023-05-22T02:56:06.243Z,0.00
2023-05-22T02:57:06.542Z,0.00
2023-05-22T02:58:06.880Z,0.00
2023-05-22T02:59:07.157Z,0.00
2023-05-22T03:00:07.461Z,1.00
2023-05-22T03:01:07.791Z,1.00
2023-05-22T03:02:08.106Z,1.00
2023-05-22T03:03:08.411Z,1.00
2023-05-22T03:04:08.665Z,1.00
2023-05-22T03:05:08.913Z,1.00
2023-05-22T03:06:09.139Z,1.00
2023-05-22T03:07:09.492Z,2.00
2023-05-22T03:08:09.890Z,0.00
2023-05-22T03:09:10.070Z,2.00
2023-05-22T03:10:10.425Z,2.00
2023-05-22T03:11:10.616Z,3.00
2023-05-22T03:12:10.925Z,1.00
2023-05-22T03:13:11.225Z,3.00
2023-05-22T03:14:11.518Z,2.00
2023-05-22T03:15:11.755Z,3.00
2023-05-22T03:16:12.059Z,4.00
2023-05-22T03:17:12.372Z,8.00
2023-05-22T03:18:12.735Z,6.00
2023-05-22T03:19:13.081Z,5.00
2023-05-22T03:20:13.266Z,7.00
2023-05-22T03:21:13.468Z,10.00
2023-05-22T03:22:13.847Z,9.00
2023-05-22T03:23:14.188Z,2.00
2023-05-22T03:24:14.326Z,11.00
2023-05-22T03:25:14.626Z,15.00
2023-05-22T03:26:14.949Z,14.00
2023-05-22T03:27:15.357Z,16.00
2023-05-22T03:28:15.609Z,21.00
2023-05-22T03:29:15.846Z,23.00
2023-05-22T03:30:16.196Z,25.00
2023-05-22T03:31:16.383Z,26.00
2023-05-22T03:32:16.751Z,22.00
2023-05-22T03:33:16.983Z,31.00
2023-05-22T03:34:17.722Z,33.00
2023-05-22T03:35:17.502Z,34.00
2023-05-22T03:36:17.729Z,39.00
2023-05-22T03:37:17.992Z,36.00
2023-05-22T03:38:18.330Z,45.00
2023-05-22T03:39:18.525Z,46.00
2023-05-22T03:40:18.936Z,48.00
2023-05-22T03:41:19.128Z,53.00
2023-05-22T03:42:19.412Z,49.00
2023-05-22T03:43:19.587Z,57.00
2023-05-22T03:44:19.941Z,55.00
2023-05-22T03:45:20.131Z,62.00
2023-05-22T03:46:20.634Z,63.00
2023-05-22T03:47:20.899Z,71.00
2023-05-22T03:48:21.069Z,72.00
2023-05-22T03:49:21.327Z,76.00
2023-05-22T03:50:21.589Z,77.00
2023-05-22T03:51:21.799Z,78.00
2023-05-22T03:52:22.085Z,85.00
2023-05-22T03:53:22.341Z,91.00
2023-05-22T03:54:22.628Z,94.00
2023-05-22T03:55:22.844Z,101.00
2023-05-22T03:56:23.132Z,104.00
2023-05-22T03:57:23.351Z,104.00
2023-05-22T03:58:23.671Z,111.00
2023-05-22T03:59:23.867Z,119.00
2023-05-22T04:00:25.711Z,127.00
2023-05-22T04:01:24.540Z,131.00
2023-05-22T04:02:24.821Z,135.00
2023-05-22T04:03:25.039Z,143.00
2023-05-22T04:04:25.265Z,151.00
2023-05-22T04:05:25.987Z,153.00
2023-05-22T04:06:25.876Z,157.00
2023-05-22T04:07:26.090Z,164.00
2023-05-22T04:08:26.415Z,170.00
2023-05-22T04:09:26.797Z,175.00
2023-05-22T04:10:27.080Z,184.00
2023-05-22T04:11:27.263Z,185.00
2023-05-22T04:12:27.659Z,193.00
2023-05-22T04:13:27.849Z,202.00
2023-05-22T04:14:28.204Z,210.00
2023-05-22T04:15:28.491Z,216.00
2023-05-22T04:16:28.823Z,222.00
2023-05-22T04:17:29.038Z,230.00
2023-05-22T04:18:29.336Z,238.00
2023-05-22T04:19:29.665Z,240.00
2023-05-22T04:20:29.812Z,249.00
2023-05-22T04:21:30.086Z,252.00
2023-05-22T04:22:30.317Z,265.00
2023-05-22T04:23:30.593Z,265.00
2023-05-22T04:24:30.984Z,275.00
2023-05-22T04:25:31.154Z,283.00
2023-05-22T04:26:31.545Z,291.00
2023-05-22T04:27:31.729Z,304.00
2023-05-22T04:28:32.109Z,305.00
2023-05-22T04:29:32.348Z,321.00
2023-05-22T04:30:32.763Z,324.00
2023-05-22T04:31:33.373Z,331.00
2023-05-22T04:32:33.226Z,332.00
2023-05-22T04:33:33.350Z,349.00
2023-05-22T04:34:33.660Z,355.00
2023-05-22T04:35:33.841Z,364.00
2023-05-22T04:36:34.256Z,374.00
2023-05-22T04:37:34.459Z,382.00
2023-05-22T04:38:34.810Z,391.00
2023-05-22T04:39:35.060Z,404.00
2023-05-22T04:40:35.407Z,406.00
2023-05-22T04:41:35.614Z,411.00
2023-05-22T04:42:35.960Z,421.00
2023-05-22T04:43:36.171Z,428.00
2023-05-22T04:44:36.530Z,437.00
2023-05-22T04:45:36.725Z,443.00
2023-05-22T04:46:37.045Z,448.00
2023-05-22T04:47:37.290Z,466.00
2023-05-22T04:48:37.529Z,469.00
2023-05-22T04:49:37.769Z,472.00
2023-05-22T04:50:38.318Z,487.00
2023-05-22T04:51:38.415Z,498.00
2023-05-22T04:52:38.691Z,504.00
2023-05-22T04:53:38.898Z,514.00
2023-05-22T04:54:39.215Z,522.00
2023-05-22T04:55:39.458Z,531.00
2023-05-22T04:56:40.034Z,537.00
2023-05-22T04:57:40.081Z,549.00
2023-05-22T04:58:40.361Z,560.00
2023-05-22T04:59:40.645Z,569.00
2023-05-22T05:00:41.113Z,576.00
2023-05-22T05:01:41.145Z,590.00
2023-05-22T05:02:41.481Z,595.00
2023-05-22T05:03:41.774Z,601.00
2023-05-22T05:04:42.054Z,620.00
2023-05-22T05:05:42.376Z,624.00
2023-05-22T05:06:42.578Z,644.00
2023-05-22T05:07:42.785Z,650.00
2023-05-22T05:08:43.213Z,662.00
2023-05-22T05:09:43.370Z,674.00
2023-05-22T05:10:43.648Z,683.00
2023-05-22T05:11:43.847Z,706.00
2023-05-22T05:12:44.246Z,713.00
2023-05-22T05:13:44.439Z,727.00
2023-05-22T05:14:44.807Z,737.00
2023-05-22T05:15:45.043Z,754.00
2023-05-22T05:16:45.431Z,762.00
2023-05-22T05:17:45.686Z,781.00
2023-05-22T05:18:46.118Z,784.00
2023-05-22T05:19:46.193Z,801.00
2023-05-22T05:20:46.504Z,813.00
2023-05-22T05:21:46.779Z,829.00
2023-05-22T05:22:47.111Z,847.00
2023-05-22T05:23:47.323Z,855.00
2023-05-22T05:24:47.705Z,870.00
2023-05-22T05:25:47.938Z,896.00
2023-05-22T05:26:48.318Z,905.00
2023-05-22T05:27:48.551Z,919.00
2023-05-22T05:28:48.884Z,934.00
2023-05-22T05:29:50.237Z,954.00
2023-05-22T05:30:49.438Z,965.00
2023-05-22T05:31:49.735Z,979.00
2023-05-22T05:32:50.033Z,998.00
2023-05-22T05:33:50.182Z,1012.00
2023-05-22T05:34:50.568Z,1020.00
2023-05-22T05:35:50.846Z,1044.00
2023-05-22T05:36:51.264Z,1051.00
2023-05-22T05:37:51.361Z,1072.00
2023-05-22T05:38:51.712Z,1080.00
2023-05-22T05:39:53.700Z,1088.00
2023-05-22T05:40:52.226Z,1116.00
2023-05-22T05:41:52.643Z,1123.00
2023-05-22T05:42:52.788Z,1136.00
2023-05-22T05:43:53.068Z,1150.00
2023-05-22T05:45:04.095Z,1163.00
2023-05-22T05:45:53.637Z,1179.00
2023-05-22T05:46:53.911Z,1198.00
2023-05-22T05:48:04.518Z,1199.00
2023-05-22T05:48:54.485Z,1242.00
2023-05-22T05:50:05.783Z,1254.00
2023-05-22T05:51:03.339Z,1240.00
2023-05-22T05:51:55.392Z,1265.00
2023-05-22T05:52:55.844Z,1283.00
2023-05-22T05:53:56.104Z,1296.00
2023-05-22T05:54:56.323Z,1307.00
2023-05-22T05:55:56.603Z,1312.00
2023-05-22T05:56:57.202Z,1322.00
2023-05-22T05:57:57.179Z,1309.00
2023-05-22T05:59:08.568Z,1346.00
2023-05-22T05:59:57.783Z,1355.00
2023-05-22T06:00:58.119Z,1362.00
2023-05-22T06:01:58.562Z,1368.00
2023-05-22T06:02:58.729Z,1396.00
2023-05-22T06:03:59.325Z,1417.00
2023-05-22T06:04:59.243Z,1420.00
2023-05-22T06:05:59.449Z,1430.00
2023-05-22T06:06:59.743Z,1454.00
2023-05-22T06:08:00.189Z,1445.00
2023-05-22T06:09:04.651Z,1452.00
2023-05-22T06:10:00.720Z,1472.00
2023-05-22T06:11:00.971Z,1487.00
2023-05-22T06:12:01.268Z,1510.00
2023-05-22T06:13:01.508Z,1512.00
2023-05-22T06:14:01.911Z,1520.00
2023-05-22T06:15:02.197Z,1546.00
2023-05-22T06:16:05.024Z,1553.00
2023-05-22T06:17:02.770Z,1584.00
2023-05-22T06:18:03.198Z,1567.00
2023-05-22T06:19:03.470Z,1599.00
2023-05-22T06:20:03.564Z,1594.00
2023-05-22T06:21:03.887Z,1612.00
2023-05-22T06:22:04.128Z,1630.00
2023-05-22T06:23:04.420Z,1681.00
2023-05-22T06:24:04.734Z,1656.00
2023-05-22T06:25:05.024Z,1650.00
2023-05-22T06:26:05.678Z,1651.00
2023-05-22T06:27:05.582Z,1636.00
2023-05-22T06:28:06.097Z,1660.00
2023-05-22T06:29:13.907Z,1645.00
2023-05-22T06:30:06.409Z,1665.00
2023-05-22T06:31:06.792Z,1651.00
2023-05-22T06:32:16.311Z,1674.00
2023-05-22T06:33:07.463Z,1683.00
2023-05-22T06:34:07.747Z,1712.00
2023-05-22T06:35:07.982Z,1729.00
2023-05-22T06:36:08.172Z,1738.00
2023-05-22T06:37:08.491Z,1788.00
2023-05-22T06:38:08.783Z,1761.00
2023-05-22T06:39:09.045Z,1753.00
2023-05-22T06:40:09.383Z,1754.00
2023-05-22T06:41:09.684Z,1779.00
2023-05-22T06:42:09.949Z,1804.00
2023-05-22T06:43:10.365Z,1755.00
2023-05-22T06:44:10.454Z,1780.00
2023-05-22T06:45:10.720Z,1818.00
2023-05-22T06:46:10.997Z,1821.00
2023-05-22T06:47:11.182Z,1819.00
2023-05-22T06:48:11.504Z,1807.00
2023-05-22T06:49:11.755Z,1821.00
2023-05-22T06:50:11.991Z,1825.00
2023-05-22T06:51:12.408Z,1814.00
2023-05-22T06:52:12.524Z,1823.00
2023-05-22T06:53:12.784Z,1859.00
2023-05-22T06:54:13.050Z,1851.00
2023-05-22T06:55:13.317Z,1816.00
2023-05-22T06:56:13.635Z,1874.00
2023-05-22T06:57:13.973Z,1876.00
2023-05-22T06:58:14.229Z,1863.00
2023-05-22T06:59:14.605Z,1895.00
2023-05-22T07:00:14.760Z,1895.00
2023-05-22T07:01:15.115Z,1947.00
2023-05-22T07:02:15.349Z,1931.00
2023-05-22T07:03:15.588Z,1813.00
2023-05-22T07:04:16.103Z,1909.00
2023-05-22T07:05:16.182Z,1943.00
2023-05-22T07:06:16.820Z,1946.00
2023-05-22T07:07:16.814Z,1992.00
2023-05-22T07:08:17.051Z,1973.00
2023-05-22T07:09:17.373Z,1982.00
2023-05-22T07:10:21.853Z,2032.00
2023-05-22T07:11:17.983Z,2045.00
2023-05-22T07:12:18.220Z,2073.00
2023-05-22T07:13:18.516Z,2035.00
2023-05-22T07:14:18.853Z,2061.00
2023-05-22T07:15:19.184Z,2087.00
2023-05-22T07:16:19.456Z,2087.00
2023-05-22T07:17:19.702Z,2110.00
2023-05-22T07:18:19.963Z,2112.00
2023-05-22T07:19:20.269Z,2150.00
2023-05-22T07:20:20.504Z,2141.00
2023-05-22T07:21:20.833Z,2142.00
2023-05-22T07:22:21.082Z,2183.00
2023-05-22T07:23:21.305Z,2178.00
2023-05-22T07:24:21.629Z,2196.00
2023-05-22T07:25:21.988Z,2218.00
2023-05-22T07:26:22.326Z,2196.00
2023-05-22T07:27:22.464Z,2214.00
2023-05-22T07:28:22.711Z,2196.00
2023-05-22T07:29:23.388Z,2257.00
2023-05-22T07:30:23.226Z,2087.00
2023-05-22T07:31:23.705Z,2274.00
2023-05-22T07:32:24.047Z,2305.00
2023-05-22T07:33:24.127Z,2297.00
2023-05-22T07:34:24.448Z,2279.00
2023-05-22T07:35:24.641Z,2244.00
2023-05-22T07:36:24.984Z,2296.00
2023-05-22T07:37:25.256Z,2328.00
2023-05-22T07:38:25.516Z,2362.00
2023-05-22T07:39:25.802Z,2336.00
2023-05-22T07:40:26.687Z,2394.00
2023-05-22T07:41:26.387Z,2418.00
2023-05-22T07:42:26.671Z,2484.00
2023-05-22T07:43:26.880Z,2440.00
2023-05-22T07:44:27.245Z,2532.00
2023-05-22T07:45:27.573Z,2576.00
2023-05-22T07:46:27.758Z,2496.00
2023-05-22T07:47:28.004Z,2557.00
2023-05-22T07:48:28.258Z,2564.00
2023-05-22T07:49:28.499Z,2747.00
2023-05-22T07:50:28.766Z,2632.00
2023-05-22T07:51:29.144Z,2742.00
2023-05-22T07:52:29.306Z,2684.00
2023-05-22T07:53:30.474Z,2706.00
2023-05-22T07:54:29.969Z,2741.00
2023-05-22T07:55:30.210Z,2526.00
2023-05-22T07:56:30.456Z,2764.00
2023-05-22T07:57:30.718Z,2867.00
2023-05-22T07:58:31.891Z,2906.00
2023-05-22T07:59:31.795Z,3259.00
2023-05-22T08:00:31.627Z,2921.00
2023-05-22T08:01:31.872Z,3066.00
2023-05-22T08:02:32.352Z,2874.00
2023-05-22T08:03:32.625Z,3371.00
2023-05-22T08:04:32.802Z,3813.00
2023-05-22T08:05:33.093Z,3548.00
2023-05-22T08:06:33.339Z,4066.00
2023-05-22T08:07:33.730Z,4211.00
2023-05-22T08:08:33.841Z,4373.00
2023-05-22T08:09:34.123Z,3962.00
2023-05-22T08:10:52.316Z,4334.00
2023-05-22T08:11:36.603Z,4127.00
2023-05-22T08:12:34.934Z,4328.00
2023-05-22T08:13:35.490Z,4280.00
2023-05-22T08:14:35.673Z,4307.00
2023-05-22T08:15:35.855Z,4380.00
2023-05-22T08:16:36.234Z,4718.00
2023-05-22T08:17:36.412Z,4862.00
2023-05-22T08:18:36.638Z,4455.00
2023-05-22T08:19:37.045Z,4492.00
2023-05-22T08:20:37.275Z,4515.00
2023-05-22T08:21:37.869Z,4545.00
2023-05-22T08:22:37.947Z,4573.00
2023-05-22T08:23:38.145Z,4340.00
2023-05-22T08:24:38.382Z,4323.00
2023-05-22T08:25:39.783Z,4275.00
2023-05-22T08:26:39.110Z,4236.00
2023-05-22T08:27:39.400Z,4234.00
2023-05-22T08:28:39.550Z,4279.00
2023-05-22T08:29:39.846Z,4144.00
2023-05-22T08:30:40.515Z,4012.00
2023-05-22T08:31:40.505Z,4230.00
2023-05-22T08:32:40.774Z,4311.00
2023-05-22T08:33:41.160Z,4490.00
2023-05-22T08:34:41.319Z,4656.00
2023-05-22T08:35:41.433Z,5227.00
2023-05-22T08:36:41.758Z,4088.00
2023-05-22T08:37:42.011Z,4328.00
2023-05-22T08:38:42.257Z,4714.00
2023-05-22T08:39:42.452Z,5238.00
2023-05-22T08:40:45.959Z,4082.00
2023-05-22T08:41:43.151Z,5056.00
2023-05-22T08:42:43.472Z,5234.00
2023-05-22T08:43:43.810Z,5503.00
2023-05-22T08:44:44.048Z,5741.00
2023-05-22T08:45:44.487Z,5041.00
2023-05-22T08:46:44.586Z,6202.00
2023-05-22T08:47:45.004Z,5304.00
2023-05-22T08:48:45.072Z,5145.00
2023-05-22T08:49:45.363Z,4635.00
2023-05-22T08:50:45.666Z,4618.00
2023-05-22T08:51:45.917Z,4406.00
2023-05-22T08:52:46.203Z,4453.00
2023-05-22T08:53:46.491Z,4327.00
2023-05-22T08:54:46.834Z,3821.00
2023-05-22T08:55:47.014Z,3707.00
2023-05-22T08:56:56.183Z,3587.00
2023-05-22T08:57:49.586Z,3416.00
2023-05-22T08:58:48.324Z,3329.00
2023-05-22T08:59:48.223Z,3348.00
2023-05-22T09:00:48.530Z,3005.00
2023-05-22T09:01:48.853Z,3417.00
2023-05-22T09:02:49.105Z,3083.00
2023-05-22T09:03:49.638Z,4612.00
2023-05-22T09:04:49.793Z,3028.00
2023-05-22T09:05:50.014Z,2803.00
2023-05-22T09:06:50.250Z,3038.00
2023-05-22T09:07:51.643Z,3328.00
2023-05-22T09:08:51.666Z,2758.00
2023-05-22T09:09:51.151Z,2719.00
2023-05-22T09:10:51.524Z,2734.00
2023-05-22T09:11:51.706Z,2827.00
2023-05-22T09:12:51.950Z,2909.00
2023-05-22T09:13:52.192Z,2942.00
2023-05-22T09:14:53.460Z,3064.00
2023-05-22T09:15:52.817Z,3069.00
2023-05-22T09:16:53.219Z,3115.00
2023-05-22T09:17:53.385Z,3195.00
2023-05-22T09:18:53.709Z,3205.00
2023-05-22T09:19:53.878Z,3293.00
2023-05-22T09:20:54.246Z,4631.00
2023-05-22T09:21:54.635Z,6613.00
2023-05-22T09:22:54.843Z,3946.00
2023-05-22T09:23:55.132Z,3820.00
2023-05-22T09:24:55.430Z,3559.00
2023-05-22T09:25:55.810Z,2344.00
2023-05-22T09:26:56.092Z,9239.00
2023-05-22T09:27:56.357Z,4347.00
2023-05-22T09:28:56.588Z,3578.00
2023-05-22T09:29:56.884Z,2971.00
2023-05-22T09:30:57.140Z,3810.00
2023-05-22T09:31:57.488Z,3986.00
2023-05-22T09:32:57.669Z,4042.00
2023-05-22T09:33:57.986Z,3849.00
2023-05-22T09:34:58.224Z,3818.00
2023-05-22T09:35:58.488Z,3789.00
2023-05-22T09:36:58.755Z,4009.00
2023-05-22T09:37:59.127Z,3807.00
2023-05-22T09:38:59.348Z,4033.00
2023-05-22T09:39:59.724Z,3543.00
2023-05-22T09:41:00.469Z,3341.00
2023-05-22T09:42:00.485Z,3579.00
2023-05-22T09:43:00.749Z,1761.00
2023-05-22T09:44:02.116Z,4678.00
2023-05-22T09:45:01.141Z,3172.00
2023-05-22T09:46:02.047Z,3127.00
2023-05-22T09:47:01.839Z,3205.00
2023-05-22T09:48:02.346Z,3283.00
2023-05-22T09:49:02.464Z,3328.00
2023-05-22T09:50:02.726Z,3401.00
2023-05-22T09:51:02.986Z,3547.00
2023-05-22T09:52:03.355Z,3524.00
2023-05-22T09:53:03.509Z,3699.00
2023-05-22T09:54:03.898Z,3829.00
2023-05-22T09:55:04.118Z,3733.00
2023-05-22T09:56:04.468Z,3448.00
2023-05-22T09:57:04.814Z,4591.00
2023-05-22T09:58:05.060Z,3556.00
2023-05-22T09:59:05.252Z,3794.00
2023-05-22T10:00:05.823Z,3651.00
2023-05-22T10:01:05.878Z,3458.00
2023-05-22T10:02:06.229Z,3511.00
2023-05-22T10:03:06.484Z,3647.00
2023-05-22T10:04:06.797Z,3780.00
2023-05-22T10:05:07.204Z,3893.00
2023-05-22T10:06:07.285Z,4051.00
2023-05-22T10:07:07.593Z,4203.00
2023-05-22T10:08:08.030Z,2201.00
2023-05-22T10:09:08.079Z,6951.00
2023-05-22T10:10:08.466Z,8108.00
2023-05-22T10:11:08.785Z,5737.00
2023-05-22T10:12:08.999Z,6007.00
2023-05-22T10:13:09.269Z,6567.00
2023-05-22T10:14:09.505Z,2662.00
2023-05-22T10:15:09.776Z,8773.00
2023-05-22T10:16:10.192Z,5342.00
2023-05-22T10:17:10.421Z,4460.00
2023-05-22T10:18:10.607Z,4575.00
2023-05-22T10:19:10.844Z,4717.00
2023-05-22T10:20:11.056Z,4920.00
2023-05-22T10:21:11.556Z,5357.00
2023-05-22T10:22:11.784Z,3098.00
2023-05-22T10:23:11.944Z,7012.00
2023-05-22T10:24:12.236Z,17406.00
2023-05-22T10:25:12.569Z,8558.00
2023-05-22T10:26:13.047Z,9942.00
2023-05-22T10:27:13.067Z,15812.00
2023-05-22T10:28:13.381Z,10099.00
2023-05-22T10:29:13.623Z,9151.00
2023-05-22T10:30:13.915Z,16684.00
2023-05-22T10:31:14.246Z,12484.00
2023-05-22T10:32:14.596Z,16345.00
2023-05-22T10:33:14.935Z,12642.00
2023-05-22T10:34:15.254Z,14156.00
2023-05-22T10:35:15.547Z,15856.00
2023-05-22T10:36:15.653Z,16131.00
2023-05-22T10:37:18.576Z,15883.00
2023-05-22T10:38:16.176Z,17364.00
2023-05-22T10:39:16.509Z,17259.00
2023-05-22T10:40:16.815Z,16451.00
2023-05-22T10:41:17.111Z,16337.00
2023-05-22T10:42:17.533Z,16015.00
2023-05-22T10:43:17.732Z,15926.00
2023-05-22T10:44:18.110Z,15427.00
2023-05-22T10:45:18.396Z,15662.00
2023-05-22T10:46:22.698Z,16302.00
2023-05-22T10:47:19.794Z,18970.00
2023-05-22T10:48:19.212Z,11278.00
2023-05-22T10:49:30.913Z,9384.00
2023-05-22T10:50:27.371Z,10829.00
2023-05-22T10:51:19.946Z,14057.00
2023-05-22T10:52:20.271Z,16514.00
2023-05-22T10:53:20.583Z,11930.00
2023-05-22T10:54:28.408Z,14927.00
2023-05-22T10:55:21.124Z,15259.00
2023-05-22T10:56:23.738Z,15497.00
2023-05-22T10:57:21.753Z,15041.00
2023-05-22T10:58:24.239Z,15859.00
2023-05-22T10:59:22.301Z,16382.00
2023-05-22T11:00:22.603Z,15804.00
2023-05-22T11:01:23.082Z,18361.00
2023-05-22T11:02:23.423Z,16580.00
2023-05-22T11:03:27.700Z,21653.00
2023-05-22T11:04:23.740Z,21775.00
2023-05-22T11:05:37.719Z,3537.00
2023-05-22T11:06:34.519Z,18883.00
2023-05-22T11:07:34.024Z,17190.00
2023-05-22T11:08:24.982Z,19106.00
2023-05-22T11:10:48.898Z,17309.00
2023-05-22T11:11:48.796Z,19709.00
2023-05-22T11:12:49.216Z,18499.00
2023-05-22T11:13:49.384Z,20293.00
2023-05-22T11:14:49.768Z,8190.00
2023-05-22T11:15:50.098Z,5499.00
2023-05-22T11:16:50.452Z,6386.00
2023-05-22T11:17:50.676Z,6188.00
2023-05-22T11:18:50.963Z,4235.00
2023-05-22T11:19:51.153Z,3968.00
2023-05-22T11:20:51.656Z,7086.00
2023-05-22T11:21:51.717Z,6622.00
2023-05-22T11:22:52.090Z,6503.00
2023-05-22T11:23:52.267Z,20577.00
2023-05-22T11:24:52.561Z,8357.00
2023-05-22T11:25:53.158Z,8154.00
2023-05-22T11:26:52.932Z,19691.00
2023-05-22T11:27:53.423Z,20745.00
2023-05-22T11:28:53.620Z,20256.00
2023-05-22T11:29:53.968Z,20801.00
2023-05-22T11:30:54.149Z,19888.00
2023-05-22T11:31:54.465Z,20093.00
2023-05-22T11:32:54.899Z,14016.00
2023-05-22T11:33:55.303Z,10989.00
2023-05-22T11:35:01.093Z,20021.00
2023-05-22T11:35:57.575Z,16906.00
2023-05-22T11:36:56.171Z,21797.00
2023-05-22T11:37:57.229Z,23679.00
2023-05-22T11:38:56.461Z,6713.00
2023-05-22T11:39:57.186Z,23165.00
2023-05-22T11:40:58.245Z,8140.00
2023-05-22T11:41:57.360Z,7205.00
2023-05-22T11:42:57.610Z,7324.00
2023-05-22T11:43:57.808Z,7101.00
2023-05-22T11:44:58.232Z,6985.00
2023-05-22T11:45:59.894Z,6988.00
2023-05-22T11:46:58.663Z,6885.00
2023-05-22T11:47:58.975Z,6766.00
2023-05-22T11:48:59.227Z,6777.00
2023-05-22T11:49:59.580Z,6690.00
2023-05-22T11:50:59.782Z,6605.00
2023-05-22T11:52:00.064Z,6575.00
2023-05-22T11:53:00.621Z,6580.00
2023-05-22T11:54:00.651Z,6643.00
2023-05-22T11:55:01.296Z,6523.00
2023-05-22T11:56:02.483Z,6549.00
2023-05-22T11:57:01.520Z,6492.00
2023-05-22T11:58:01.807Z,6306.00
2023-05-22T11:59:02.065Z,6428.00
2023-05-22T12:00:02.352Z,6331.00
2023-05-22T12:01:02.656Z,6222.00
2023-05-22T12:02:02.941Z,6253.00
2023-05-22T12:03:03.298Z,6233.00
2023-05-22T12:04:03.732Z,6114.00
2023-05-22T12:05:03.808Z,6184.00
2023-05-22T12:06:04.144Z,6197.00
2023-05-22T12:07:04.592Z,6077.00
2023-05-22T12:08:04.708Z,6081.00
2023-05-22T12:09:04.926Z,6002.00
2023-05-22T12:10:05.264Z,5848.00
2023-05-22T12:11:05.552Z,5806.00
2023-05-22T12:12:06.009Z,5717.00
2023-05-22T12:13:06.203Z,5682.00
2023-05-22T12:14:06.336Z,5617.00
2023-05-22T12:15:06.730Z,5503.00
2023-05-22T12:16:07.088Z,5530.00
2023-05-22T12:17:07.350Z,5454.00
2023-05-22T12:18:07.513Z,5419.00
2023-05-22T12:19:07.909Z,5327.00
2023-05-22T12:20:08.284Z,5327.00
2023-05-22T12:21:08.428Z,5336.00
2023-05-22T12:22:08.706Z,5310.00
2023-05-22T12:23:09.020Z,5191.00
2023-05-22T12:24:09.393Z,5176.00
2023-05-22T12:25:09.571Z,5149.00
2023-05-22T12:26:09.731Z,5188.00
2023-05-22T12:27:10.175Z,5137.00
2023-05-22T12:28:10.646Z,5165.00
2023-05-22T12:29:10.787Z,5078.00
2023-05-22T12:30:11.022Z,5032.00
2023-05-22T12:31:11.300Z,5049.00
2023-05-22T12:32:11.762Z,5043.00